Bookmark and Share
Track history (hours):
 

Vaagtrans

Last reported at 2014-Apr-22 12:16 UTC. Time now 2014-Apr-24 21:54 UTC.
Position N 69°36' E 018°52'.

Length 40 m; draft 5.5 m.

Type: Ship. MMSI: 258274000.

NotesDate/timePositionNaut miles runAvg speedWind from/ knotsBaromVisibWave heightAir tempDewpointWater temp
2014-Apr-22 12:16N 69°36' E 018°52'8 0.8
2014-Apr-22 02:33N 69°43' E 019°04'3 3.0
2014-Apr-22 01:33N 69°40' E 018°59'0 0.0
2014-Apr-22 00:33N 69°40' E 018°59'0 0.0
2014-Apr-21 23:33N 69°40' E 018°59'0 0.0
2014-Apr-21 22:33N 69°40' E 018°59'  
2014-Apr-15 17:10N 67°44' E 014°31'810.5
2014-Apr-15 16:26N 67°36' E 014°31'910.3
2014-Apr-15 15:33N 67°27' E 014°28'1010.2
2014-Apr-15 14:33N 67°18' E 014°16'10 5.2
2014-Apr-15 12:34N 67°09' E 014°02'2 1.6
2014-Apr-15 11:33N 67°08' E 013°59'5 4.8
2014-Apr-15 10:31N 67°04' E 013°53'39 9.7
2014-Apr-15 06:31N 66°32' E 012°56'1010.1
2014-Apr-15 05:34N 66°26' E 012°37'7 3.6
2014-Apr-15 03:34N 66°22' E 012°22'0 0.0
2014-Apr-15 02:34N 66°22' E 012°22'0 0.0
2014-Apr-15 01:34N 66°22' E 012°22'0 0.0
2014-Apr-15 00:34N 66°22' E 012°22'0 0.0
2014-Apr-14 23:34N 66°22' E 012°22'0 0.0
2014-Apr-14 22:34N 66°22' E 012°22'0 0.1
2014-Apr-14 21:34N 66°22' E 012°23'0 0.0
2014-Apr-14 20:34N 66°22' E 012°23'0 0.0
2014-Apr-14 19:34N 66°22' E 012°23'6 5.6
2014-Apr-14 18:34N 66°25' E 012°34'1110.3
2014-Apr-14 17:29N 66°32' E 012°56'39 9.8
2014-Apr-14 13:31N 67°04' E 013°53'2010.2
2014-Apr-14 11:34N 67°21' E 014°21'1010.0
2014-Apr-14 10:33N 67°30' E 014°29'15510.0
2014-Apr-13 19:03N 69°33' E 018°44'5 9.2
2014-Apr-13 18:33N 69°37' E 018°54'96 9.6
2014-Apr-13 08:32N 70°30' E 022°47'10 9.6
2014-Apr-13 07:30N 70°36' E 023°10'1010.3
2014-Apr-13 06:33N 70°44' E 023°27'1 0.2
2014-Apr-13 00:33N 70°45' E 023°29'1111.3
2014-Apr-12 23:32N 70°36' E 023°11'  

Dump ship's entire track history

sailing weather and tide predictions

Vaagtrans — LAIZ — position and weather